sensor_id;sensor_type;location;lat;lon;timestamp;temperature;humidity
17495;DHT22;8864;51.970;4.614;2023-03-24T00:00:27;17.90;73.00
17495;DHT22;8864;51.970;4.614;2023-03-24T00:02:54;17.90;73.00
17495;DHT22;8864;51.970;4.614;2023-03-24T00:05:25;18.00;73.00
17495;DHT22;8864;51.970;4.614;2023-03-24T00:07:53;17.90;73.00
17495;DHT22;8864;51.970;4.614;2023-03-24T00:10:20;17.90;73.10
17495;DHT22;8864;51.970;4.614;2023-03-24T00:12:48;18.00;73.10
17495;DHT22;8864;51.970;4.614;2023-03-24T00:15:17;17.90;73.30
17495;DHT22;8864;51.970;4.614;2023-03-24T00:17:46;18.00;73.30
17495;DHT22;8864;51.970;4.614;2023-03-24T00:20:18;18.00;73.30
17495;DHT22;8864;51.970;4.614;2023-03-24T00:22:49;17.90;73.30
17495;DHT22;8864;51.970;4.614;2023-03-24T00:25:23;18.00;73.30
17495;DHT22;8864;51.970;4.614;2023-03-24T00:27:53;18.00;73.30
17495;DHT22;8864;51.970;4.614;2023-03-24T00:30:20;18.00;73.30
17495;DHT22;8864;51.970;4.614;2023-03-24T00:32:48;18.00;73.40
17495;DHT22;8864;51.970;4.614;2023-03-24T00:35:16;17.90;73.40
17495;DHT22;8864;51.970;4.614;2023-03-24T00:37:44;18.00;73.40
17495;DHT22;8864;51.970;4.614;2023-03-24T00:40:12;17.90;73.40
17495;DHT22;8864;51.970;4.614;2023-03-24T00:42:41;17.90;73.60
17495;DHT22;8864;51.970;4.614;2023-03-24T00:45:12;17.90;73.60
17495;DHT22;8864;51.970;4.614;2023-03-24T00:47:40;17.90;73.60
17495;DHT22;8864;51.970;4.614;2023-03-24T00:50:13;17.90;73.60
17495;DHT22;8864;51.970;4.614;2023-03-24T00:52:42;17.90;74.30
17495;DHT22;8864;51.970;4.614;2023-03-24T00:55:13;17.90;73.60
17495;DHT22;8864;51.970;4.614;2023-03-24T00:57:42;17.90;73.60
17495;DHT22;8864;51.970;4.614;2023-03-24T01:00:16;17.90;73.70
17495;DHT22;8864;51.970;4.614;2023-03-24T01:02:44;17.90;73.70
17495;DHT22;8864;51.970;4.614;2023-03-24T01:05:13;17.90;73.70
17495;DHT22;8864;51.970;4.614;2023-03-24T01:07:42;17.90;73.70
17495;DHT22;8864;51.970;4.614;2023-03-24T01:10:12;17.90;73.80
17495;DHT22;8864;51.970;4.614;2023-03-24T01:12:39;17.90;73.80
17495;DHT22;8864;51.970;4.614;2023-03-24T01:15:10;17.90;73.90
17495;DHT22;8864;51.970;4.614;2023-03-24T01:17:37;17.90;73.90
17495;DHT22;8864;51.970;4.614;2023-03-24T01:20:06;17.90;73.90
17495;DHT22;8864;51.970;4.614;2023-03-24T01:22:38;17.90;73.90
17495;DHT22;8864;51.970;4.614;2023-03-24T01:25:06;17.90;73.90
17495;DHT22;8864;51.970;4.614;2023-03-24T01:27:35;17.90;73.90
17495;DHT22;8864;51.970;4.614;2023-03-24T01:30:03;17.90;74.00
17495;DHT22;8864;51.970;4.614;2023-03-24T01:32:30;17.90;74.00
17495;DHT22;8864;51.970;4.614;2023-03-24T01:34:57;17.90;74.00
17495;DHT22;8864;51.970;4.614;2023-03-24T01:37:24;17.90;74.00
17495;DHT22;8864;51.970;4.614;2023-03-24T01:39:53;17.90;74.00
17495;DHT22;8864;51.970;4.614;2023-03-24T01:42:22;17.90;74.10
17495;DHT22;8864;51.970;4.614;2023-03-24T01:44:53;17.90;74.10
17495;DHT22;8864;51.970;4.614;2023-03-24T01:47:20;17.90;74.10
17495;DHT22;8864;51.970;4.614;2023-03-24T01:49:52;17.90;74.10
17495;DHT22;8864;51.970;4.614;2023-03-24T01:52:23;17.90;74.20
17495;DHT22;8864;51.970;4.614;2023-03-24T01:54:54;17.90;74.20
17495;DHT22;8864;51.970;4.614;2023-03-24T01:57:26;17.90;74.20
17495;DHT22;8864;51.970;4.614;2023-03-24T01:59:56;17.90;74.30
17495;DHT22;8864;51.970;4.614;2023-03-24T02:02:24;17.90;74.30
17495;DHT22;8864;51.970;4.614;2023-03-24T02:05:00;17.90;74.30
17495;DHT22;8864;51.970;4.614;2023-03-24T02:07:31;17.90;74.30
17495;DHT22;8864;51.970;4.614;2023-03-24T02:10:04;17.90;74.30
17495;DHT22;8864;51.970;4.614;2023-03-24T02:12:32;17.90;74.30
17495;DHT22;8864;51.970;4.614;2023-03-24T02:15:00;17.80;74.30
17495;DHT22;8864;51.970;4.614;2023-03-24T02:17:42;17.90;74.30
17495;DHT22;8864;51.970;4.614;2023-03-24T02:20:45;17.90;74.30
17495;DHT22;8864;51.970;4.614;2023-03-24T02:26:38;17.80;74.50
17495;DHT22;8864;51.970;4.614;2023-03-24T02:29:28;17.80;74.30
17495;DHT22;8864;51.970;4.614;2023-03-24T02:32:12;17.90;74.30
17495;DHT22;8864;51.970;4.614;2023-03-24T02:35:18;17.80;74.20
17495;DHT22;8864;51.970;4.614;2023-03-24T02:38:19;17.80;74.20
17495;DHT22;8864;51.970;4.614;2023-03-24T02:40:56;17.80;74.20
17495;DHT22;8864;51.970;4.614;2023-03-24T02:43:35;17.80;74.10
17495;DHT22;8864;51.970;4.614;2023-03-24T02:46:10;17.80;74.10
17495;DHT22;8864;51.970;4.614;2023-03-24T02:48:48;17.80;74.00
17495;DHT22;8864;51.970;4.614;2023-03-24T02:51:24;17.80;74.00
17495;DHT22;8864;51.970;4.614;2023-03-24T02:53:59;17.80;74.10
17495;DHT22;8864;51.970;4.614;2023-03-24T02:56:33;17.80;74.00
17495;DHT22;8864;51.970;4.614;2023-03-24T02:59:04;17.80;74.00
17495;DHT22;8864;51.970;4.614;2023-03-24T03:01:36;17.70;73.90
17495;DHT22;8864;51.970;4.614;2023-03-24T03:04:08;17.80;74.00
17495;DHT22;8864;51.970;4.614;2023-03-24T03:06:41;17.80;74.00
17495;DHT22;8864;51.970;4.614;2023-03-24T03:09:11;17.80;74.00
17495;DHT22;8864;51.970;4.614;2023-03-24T03:11:44;17.80;73.90
17495;DHT22;8864;51.970;4.614;2023-03-24T03:14:17;17.80;73.90
17495;DHT22;8864;51.970;4.614;2023-03-24T03:16:47;17.80;73.90
17495;DHT22;8864;51.970;4.614;2023-03-24T03:19:20;17.70;73.90
17495;DHT22;8864;51.970;4.614;2023-03-24T03:21:48;17.70;73.90
17495;DHT22;8864;51.970;4.614;2023-03-24T03:24:18;17.70;73.90
17495;DHT22;8864;51.970;4.614;2023-03-24T03:26:56;17.70;73.90
17495;DHT22;8864;51.970;4.614;2023-03-24T03:29:28;17.70;73.90
17495;DHT22;8864;51.970;4.614;2023-03-24T03:32:01;17.70;73.90
17495;DHT22;8864;51.970;4.614;2023-03-24T03:34:36;17.70;73.90
17495;DHT22;8864;51.970;4.614;2023-03-24T03:37:07;17.70;73.80
17495;DHT22;8864;51.970;4.614;2023-03-24T03:39:40;17.70;73.80
17495;DHT22;8864;51.970;4.614;2023-03-24T03:42:10;17.60;73.70
17495;DHT22;8864;51.970;4.614;2023-03-24T03:44:37;17.70;73.80
17495;DHT22;8864;51.970;4.614;2023-03-24T03:47:04;17.70;73.80
17495;DHT22;8864;51.970;4.614;2023-03-24T03:49:31;17.60;73.70
17495;DHT22;8864;51.970;4.614;2023-03-24T03:51:59;17.60;73.70
17495;DHT22;8864;51.970;4.614;2023-03-24T03:54:28;17.70;73.80
17495;DHT22;8864;51.970;4.614;2023-03-24T03:56:56;17.60;73.70
17495;DHT22;8864;51.970;4.614;2023-03-24T03:59:29;17.60;73.70
17495;DHT22;8864;51.970;4.614;2023-03-24T04:02:00;17.60;73.70
17495;DHT22;8864;51.970;4.614;2023-03-24T04:04:53;17.60;73.70
17495;DHT22;8864;51.970;4.614;2023-03-24T04:07:27;17.60;73.70
17495;DHT22;8864;51.970;4.614;2023-03-24T04:10:04;17.60;73.70
17495;DHT22;8864;51.970;4.614;2023-03-24T04:13:03;17.60;73.70
17495;DHT22;8864;51.970;4.614;2023-03-24T04:15:43;17.60;73.70
17495;DHT22;8864;51.970;4.614;2023-03-24T04:18:21;17.60;73.70
17495;DHT22;8864;51.970;4.614;2023-03-24T04:21:04;17.50;73.70
17495;DHT22;8864;51.970;4.614;2023-03-24T04:23:40;17.50;73.70
17495;DHT22;8864;51.970;4.614;2023-03-24T04:26:15;17.60;73.70
17495;DHT22;8864;51.970;4.614;2023-03-24T04:29:02;17.50;73.60
17495;DHT22;8864;51.970;4.614;2023-03-24T04:31:34;17.50;73.70
17495;DHT22;8864;51.970;4.614;2023-03-24T04:34:05;17.50;73.70
17495;DHT22;8864;51.970;4.614;2023-03-24T04:36:40;17.50;73.70
17495;DHT22;8864;51.970;4.614;2023-03-24T04:39:12;17.50;73.70
17495;DHT22;8864;51.970;4.614;2023-03-24T04:41:42;17.50;73.70
17495;DHT22;8864;51.970;4.614;2023-03-24T04:44:11;17.50;73.70
17495;DHT22;8864;51.970;4.614;2023-03-24T04:46:39;17.50;73.90
17495;DHT22;8864;51.970;4.614;2023-03-24T04:49:07;17.50;73.70
17495;DHT22;8864;51.970;4.614;2023-03-24T04:51:34;17.50;73.70
17495;DHT22;8864;51.970;4.614;2023-03-24T04:54:01;17.50;73.70
17495;DHT22;8864;51.970;4.614;2023-03-24T04:56:33;17.50;73.70
17495;DHT22;8864;51.970;4.614;2023-03-24T04:59:01;17.50;73.70
17495;DHT22;8864;51.970;4.614;2023-03-24T05:01:28;17.50;73.70
17495;DHT22;8864;51.970;4.614;2023-03-24T05:03:58;17.50;73.70
17495;DHT22;8864;51.970;4.614;2023-03-24T05:06:25;17.50;73.70
17495;DHT22;8864;51.970;4.614;2023-03-24T05:08:53;17.50;73.70
17495;DHT22;8864;51.970;4.614;2023-03-24T05:11:22;17.40;73.70
17495;DHT22;8864;51.970;4.614;2023-03-24T05:13:49;17.40;73.70
17495;DHT22;8864;51.970;4.614;2023-03-24T05:16:16;17.40;73.70
17495;DHT22;8864;51.970;4.614;2023-03-24T05:18:43;17.40;73.70
17495;DHT22;8864;51.970;4.614;2023-03-24T05:21:11;17.40;73.70
17495;DHT22;8864;51.970;4.614;2023-03-24T05:23:38;17.40;73.70
17495;DHT22;8864;51.970;4.614;2023-03-24T05:26:06;17.40;73.70
17495;DHT22;8864;51.970;4.614;2023-03-24T05:28:33;17.40;73.70
17495;DHT22;8864;51.970;4.614;2023-03-24T05:31:00;17.40;73.70
17495;DHT22;8864;51.970;4.614;2023-03-24T05:33:27;17.40;73.70
17495;DHT22;8864;51.970;4.614;2023-03-24T05:35:55;17.40;73.60
17495;DHT22;8864;51.970;4.614;2023-03-24T05:38:23;17.40;73.60
17495;DHT22;8864;51.970;4.614;2023-03-24T05:40:50;17.40;73.60
17495;DHT22;8864;51.970;4.614;2023-03-24T05:43:17;17.30;73.50
17495;DHT22;8864;51.970;4.614;2023-03-24T05:45:44;17.40;73.60
17495;DHT22;8864;51.970;4.614;2023-03-24T05:48:11;17.40;73.60
17495;DHT22;8864;51.970;4.614;2023-03-24T05:50:38;17.40;73.60
17495;DHT22;8864;51.970;4.614;2023-03-24T05:53:08;17.40;73.60
17495;DHT22;8864;51.970;4.614;2023-03-24T05:55:36;17.40;73.60
17495;DHT22;8864;51.970;4.614;2023-03-24T05:58:05;17.40;73.60
17495;DHT22;8864;51.970;4.614;2023-03-24T06:00:32;17.30;73.50
17495;DHT22;8864;51.970;4.614;2023-03-24T06:02:59;17.30;73.50
17495;DHT22;8864;51.970;4.614;2023-03-24T06:05:27;17.30;73.60
17495;DHT22;8864;51.970;4.614;2023-03-24T06:07:54;17.30;73.60
17495;DHT22;8864;51.970;4.614;2023-03-24T06:10:23;17.30;73.60
17495;DHT22;8864;51.970;4.614;2023-03-24T06:12:52;17.30;73.60
17495;DHT22;8864;51.970;4.614;2023-03-24T06:15:20;17.30;73.80
17495;DHT22;8864;51.970;4.614;2023-03-24T06:17:49;17.30;73.90
17495;DHT22;8864;51.970;4.614;2023-03-24T06:20:19;17.30;73.90
17495;DHT22;8864;51.970;4.614;2023-03-24T06:22:46;17.30;73.90
17495;DHT22;8864;51.970;4.614;2023-03-24T06:25:15;17.30;73.80
17495;DHT22;8864;51.970;4.614;2023-03-24T06:27:43;17.30;73.70
17495;DHT22;8864;51.970;4.614;2023-03-24T06:30:15;17.30;73.60
17495;DHT22;8864;51.970;4.614;2023-03-24T06:32:43;17.30;74.30
17495;DHT22;8864;51.970;4.614;2023-03-24T06:35:11;17.30;73.40
17495;DHT22;8864;51.970;4.614;2023-03-24T06:37:38;17.30;73.40
17495;DHT22;8864;51.970;4.614;2023-03-24T06:40:07;17.30;73.30
17495;DHT22;8864;51.970;4.614;2023-03-24T06:42:37;17.30;73.20
17495;DHT22;8864;51.970;4.614;2023-03-24T06:45:06;17.30;73.30
17495;DHT22;8864;51.970;4.614;2023-03-24T06:47:34;17.30;73.20
17495;DHT22;8864;51.970;4.614;2023-03-24T06:50:01;17.30;73.10
17495;DHT22;8864;51.970;4.614;2023-03-24T06:52:29;17.30;73.00
17495;DHT22;8864;51.970;4.614;2023-03-24T06:54:55;17.30;73.00
17495;DHT22;8864;51.970;4.614;2023-03-24T06:57:22;17.30;73.90
17495;DHT22;8864;51.970;4.614;2023-03-24T06:59:50;17.40;73.70
17495;DHT22;8864;51.970;4.614;2023-03-24T07:02:17;17.30;73.60
17495;DHT22;8864;51.970;4.614;2023-03-24T07:04:45;17.40;73.60
17495;DHT22;8864;51.970;4.614;2023-03-24T07:07:13;17.30;73.40
17495;DHT22;8864;51.970;4.614;2023-03-24T07:09:42;17.30;73.30
17495;DHT22;8864;51.970;4.614;2023-03-24T07:12:09;17.40;73.30
17495;DHT22;8864;51.970;4.614;2023-03-24T07:14:37;17.30;73.10
17495;DHT22;8864;51.970;4.614;2023-03-24T07:17:04;17.30;73.10
17495;DHT22;8864;51.970;4.614;2023-03-24T07:19:34;17.40;73.10
17495;DHT22;8864;51.970;4.614;2023-03-24T07:22:02;17.40;73.30
17495;DHT22;8864;51.970;4.614;2023-03-24T07:24:31;17.30;73.60
17495;DHT22;8864;51.970;4.614;2023-03-24T07:26:58;17.30;74.80
17495;DHT22;8864;51.970;4.614;2023-03-24T07:29:25;17.40;75.40
17495;DHT22;8864;51.970;4.614;2023-03-24T07:31:52;17.40;75.70
17495;DHT22;8864;51.970;4.614;2023-03-24T07:34:18;17.50;75.10
17495;DHT22;8864;51.970;4.614;2023-03-24T07:36:49;17.50;74.50
17495;DHT22;8864;51.970;4.614;2023-03-24T07:39:17;17.50;74.30
17495;DHT22;8864;51.970;4.614;2023-03-24T07:41:44;17.50;74.80
17495;DHT22;8864;51.970;4.614;2023-03-24T07:44:14;17.50;74.40
17495;DHT22;8864;51.970;4.614;2023-03-24T07:46:40;17.50;73.70
17495;DHT22;8864;51.970;4.614;2023-03-24T07:49:07;17.50;73.20
17495;DHT22;8864;51.970;4.614;2023-03-24T07:51:34;17.50;73.00
17495;DHT22;8864;51.970;4.614;2023-03-24T07:54:01;17.60;73.10
17495;DHT22;8864;51.970;4.614;2023-03-24T07:56:30;17.70;72.30
17495;DHT22;8864;51.970;4.614;2023-03-24T07:58:57;17.70;72.00
17495;DHT22;8864;51.970;4.614;2023-03-24T08:01:24;17.70;71.90
17495;DHT22;8864;51.970;4.614;2023-03-24T08:03:51;17.70;71.70
17495;DHT22;8864;51.970;4.614;2023-03-24T08:06:20;17.70;71.70
17495;DHT22;8864;51.970;4.614;2023-03-24T08:08:47;17.70;71.60
17495;DHT22;8864;51.970;4.614;2023-03-24T08:11:15;17.80;72.00
17495;DHT22;8864;51.970;4.614;2023-03-24T08:13:43;17.80;72.00
17495;DHT22;8864;51.970;4.614;2023-03-24T08:16:10;17.80;72.00
17495;DHT22;8864;51.970;4.614;2023-03-24T08:18:37;17.80;72.10
17495;DHT22;8864;51.970;4.614;2023-03-24T08:21:04;17.80;72.10
17495;DHT22;8864;51.970;4.614;2023-03-24T08:23:31;17.80;72.00
17495;DHT22;8864;51.970;4.614;2023-03-24T08:26:00;17.90;71.90
17495;DHT22;8864;51.970;4.614;2023-03-24T08:28:27;17.80;71.70
17495;DHT22;8864;51.970;4.614;2023-03-24T08:30:55;17.80;72.30
17495;DHT22;8864;51.970;4.614;2023-03-24T08:33:23;17.80;71.70
17495;DHT22;8864;51.970;4.614;2023-03-24T08:35:50;17.90;71.40
17495;DHT22;8864;51.970;4.614;2023-03-24T08:38:22;17.90;71.30
17495;DHT22;8864;51.970;4.614;2023-03-24T08:40:55;17.90;70.90
17495;DHT22;8864;51.970;4.614;2023-03-24T08:43:23;17.90;70.80
17495;DHT22;8864;51.970;4.614;2023-03-24T08:45:50;17.90;71.00
17495;DHT22;8864;51.970;4.614;2023-03-24T08:48:19;17.90;70.80
17495;DHT22;8864;51.970;4.614;2023-03-24T08:50:47;18.00;70.50
17495;DHT22;8864;51.970;4.614;2023-03-24T08:53:14;18.00;70.70
17495;DHT22;8864;51.970;4.614;2023-03-24T08:55:42;18.00;71.00
17495;DHT22;8864;51.970;4.614;2023-03-24T08:58:13;18.00;71.30
17495;DHT22;8864;51.970;4.614;2023-03-24T09:00:40;18.00;71.60
17495;DHT22;8864;51.970;4.614;2023-03-24T09:03:10;18.00;71.60
17495;DHT22;8864;51.970;4.614;2023-03-24T09:05:39;18.00;71.80
17495;DHT22;8864;51.970;4.614;2023-03-24T09:08:06;18.10;72.10
17495;DHT22;8864;51.970;4.614;2023-03-24T09:10:33;18.10;72.10
17495;DHT22;8864;51.970;4.614;2023-03-24T09:13:01;18.10;72.10
17495;DHT22;8864;51.970;4.614;2023-03-24T09:15:29;18.10;72.10
17495;DHT22;8864;51.970;4.614;2023-03-24T09:17:56;18.10;72.10
17495;DHT22;8864;51.970;4.614;2023-03-24T09:20:23;18.10;72.30
17495;DHT22;8864;51.970;4.614;2023-03-24T09:22:52;18.10;72.30
17495;DHT22;8864;51.970;4.614;2023-03-24T09:25:21;18.20;72.40
17495;DHT22;8864;51.970;4.614;2023-03-24T09:27:49;18.20;72.40
17495;DHT22;8864;51.970;4.614;2023-03-24T09:30:18;18.20;72.20
17495;DHT22;8864;51.970;4.614;2023-03-24T09:32:45;18.20;72.10
17495;DHT22;8864;51.970;4.614;2023-03-24T09:35:12;18.20;72.10
17495;DHT22;8864;51.970;4.614;2023-03-24T09:37:40;18.20;72.10
17495;DHT22;8864;51.970;4.614;2023-03-24T09:40:17;18.20;72.10
17495;DHT22;8864;51.970;4.614;2023-03-24T09:42:50;18.30;72.30
17495;DHT22;8864;51.970;4.614;2023-03-24T09:45:21;18.30;72.10
17495;DHT22;8864;51.970;4.614;2023-03-24T09:47:53;18.30;71.90
17495;DHT22;8864;51.970;4.614;2023-03-24T09:50:25;18.20;71.60
17495;DHT22;8864;51.970;4.614;2023-03-24T09:52:55;18.30;71.70
17495;DHT22;8864;51.970;4.614;2023-03-24T09:55:27;18.20;71.60
17495;DHT22;8864;51.970;4.614;2023-03-24T09:57:57;18.20;71.50
17495;DHT22;8864;51.970;4.614;2023-03-24T10:00:28;18.30;71.50
17495;DHT22;8864;51.970;4.614;2023-03-24T10:02:58;18.20;71.50
17495;DHT22;8864;51.970;4.614;2023-03-24T10:05:29;18.20;71.50
17495;DHT22;8864;51.970;4.614;2023-03-24T10:08:03;18.20;71.50
17495;DHT22;8864;51.970;4.614;2023-03-24T10:10:38;18.20;71.50
17495;DHT22;8864;51.970;4.614;2023-03-24T10:13:14;18.20;71.40
17495;DHT22;8864;51.970;4.614;2023-03-24T10:15:48;18.20;71.40
17495;DHT22;8864;51.970;4.614;2023-03-24T10:18:29;18.20;71.30
17495;DHT22;8864;51.970;4.614;2023-03-24T10:21:01;18.20;71.40
17495;DHT22;8864;51.970;4.614;2023-03-24T10:23:35;18.30;71.30
17495;DHT22;8864;51.970;4.614;2023-03-24T10:26:12;18.20;71.30
17495;DHT22;8864;51.970;4.614;2023-03-24T10:28:46;18.20;71.10
17495;DHT22;8864;51.970;4.614;2023-03-24T10:31:17;18.20;71.00
17495;DHT22;8864;51.970;4.614;2023-03-24T10:33:46;18.20;71.00
17495;DHT22;8864;51.970;4.614;2023-03-24T10:36:17;18.20;70.90
17495;DHT22;8864;51.970;4.614;2023-03-24T10:38:46;18.20;71.00
17495;DHT22;8864;51.970;4.614;2023-03-24T10:41:18;18.20;71.00
17495;DHT22;8864;51.970;4.614;2023-03-24T10:43:46;18.20;71.00
17495;DHT22;8864;51.970;4.614;2023-03-24T10:46:16;18.30;71.00
17495;DHT22;8864;51.970;4.614;2023-03-24T10:48:46;18.30;71.00
17495;DHT22;8864;51.970;4.614;2023-03-24T10:51:15;18.30;71.00
17495;DHT22;8864;51.970;4.614;2023-03-24T10:53:43;18.30;71.00
17495;DHT22;8864;51.970;4.614;2023-03-24T10:56:16;18.30;70.90
17495;DHT22;8864;51.970;4.614;2023-03-24T10:58:45;18.30;71.00
17495;DHT22;8864;51.970;4.614;2023-03-24T11:01:24;18.30;70.90
17495;DHT22;8864;51.970;4.614;2023-03-24T11:03:59;18.30;71.00
17495;DHT22;8864;51.970;4.614;2023-03-24T11:06:28;18.40;71.00
17495;DHT22;8864;51.970;4.614;2023-03-24T11:09:18;18.30;71.00
17495;DHT22;8864;51.970;4.614;2023-03-24T11:11:47;18.30;70.90
17495;DHT22;8864;51.970;4.614;2023-03-24T11:14:21;18.40;70.90
17495;DHT22;8864;51.970;4.614;2023-03-24T11:16:50;18.40;70.90
17495;DHT22;8864;51.970;4.614;2023-03-24T11:19:19;18.40;70.90
17495;DHT22;8864;51.970;4.614;2023-03-24T11:21:47;18.40;71.00
17495;DHT22;8864;51.970;4.614;2023-03-24T11:24:16;18.40;71.00
17495;DHT22;8864;51.970;4.614;2023-03-24T11:26:45;18.40;71.00
17495;DHT22;8864;51.970;4.614;2023-03-24T11:29:18;18.40;71.00
17495;DHT22;8864;51.970;4.614;2023-03-24T11:31:55;18.40;70.90
17495;DHT22;8864;51.970;4.614;2023-03-24T11:34:27;18.40;71.00
17495;DHT22;8864;51.970;4.614;2023-03-24T11:37:00;18.40;71.00
17495;DHT22;8864;51.970;4.614;2023-03-24T11:39:30;18.40;71.20
17495;DHT22;8864;51.970;4.614;2023-03-24T11:42:18;18.40;71.20
17495;DHT22;8864;51.970;4.614;2023-03-24T11:44:48;18.40;71.20
17495;DHT22;8864;51.970;4.614;2023-03-24T11:47:26;18.40;71.20
17495;DHT22;8864;51.970;4.614;2023-03-24T11:50:04;18.40;71.20
17495;DHT22;8864;51.970;4.614;2023-03-24T11:52:42;18.40;71.20
17495;DHT22;8864;51.970;4.614;2023-03-24T11:55:15;18.40;71.20
17495;DHT22;8864;51.970;4.614;2023-03-24T11:57:48;18.40;71.20
17495;DHT22;8864;51.970;4.614;2023-03-24T12:00:23;18.30;71.20
17495;DHT22;8864;51.970;4.614;2023-03-24T12:03:13;18.40;71.20
17495;DHT22;8864;51.970;4.614;2023-03-24T12:05:48;18.40;71.20
17495;DHT22;8864;51.970;4.614;2023-03-24T12:08:28;18.40;71.20
17495;DHT22;8864;51.970;4.614;2023-03-24T12:11:11;18.50;71.20
17495;DHT22;8864;51.970;4.614;2023-03-24T12:13:41;18.50;71.20
17495;DHT22;8864;51.970;4.614;2023-03-24T12:16:35;18.50;71.20
17495;DHT22;8864;51.970;4.614;2023-03-24T12:22:18;18.50;71.80
17495;DHT22;8864;51.970;4.614;2023-03-24T12:25:01;18.50;71.00
17495;DHT22;8864;51.970;4.614;2023-03-24T12:27:39;18.50;71.00
17495;DHT22;8864;51.970;4.614;2023-03-24T12:30:15;18.50;71.00
17495;DHT22;8864;51.970;4.614;2023-03-24T12:33:02;18.50;71.00
17495;DHT22;8864;51.970;4.614;2023-03-24T12:35:54;18.50;71.00
17495;DHT22;8864;51.970;4.614;2023-03-24T12:38:38;18.50;70.90
17495;DHT22;8864;51.970;4.614;2023-03-24T12:44:44;18.50;70.90
17495;DHT22;8864;51.970;4.614;2023-03-24T12:47:26;18.50;70.80
17495;DHT22;8864;51.970;4.614;2023-03-24T12:50:09;18.50;70.70
17495;DHT22;8864;51.970;4.614;2023-03-24T12:52:55;18.60;70.70
17495;DHT22;8864;51.970;4.614;2023-03-24T12:55:29;18.50;70.50
17495;DHT22;8864;51.970;4.614;2023-03-24T12:58:04;18.60;70.60
17495;DHT22;8864;51.970;4.614;2023-03-24T13:00:37;18.60;70.40
17495;DHT22;8864;51.970;4.614;2023-03-24T13:03:10;18.60;70.40
17495;DHT22;8864;51.970;4.614;2023-03-24T13:05:44;18.60;70.40
17495;DHT22;8864;51.970;4.614;2023-03-24T13:08:17;18.60;70.40
17495;DHT22;8864;51.970;4.614;2023-03-24T13:10:49;18.60;70.40
17495;DHT22;8864;51.970;4.614;2023-03-24T13:13:20;18.60;70.30
17495;DHT22;8864;51.970;4.614;2023-03-24T13:15:50;18.60;70.30
17495;DHT22;8864;51.970;4.614;2023-03-24T13:18:26;18.60;70.30
17495;DHT22;8864;51.970;4.614;2023-03-24T13:21:00;18.60;70.30
17495;DHT22;8864;51.970;4.614;2023-03-24T13:23:43;18.60;70.30
17495;DHT22;8864;51.970;4.614;2023-03-24T13:26:19;18.60;70.20
17495;DHT22;8864;51.970;4.614;2023-03-24T13:29:00;18.60;70.10
17495;DHT22;8864;51.970;4.614;2023-03-24T13:31:33;18.60;70.10
17495;DHT22;8864;51.970;4.614;2023-03-24T13:34:02;18.60;70.10
17495;DHT22;8864;51.970;4.614;2023-03-24T13:36:43;18.60;70.10
17495;DHT22;8864;51.970;4.614;2023-03-24T13:39:14;18.60;70.20
17495;DHT22;8864;51.970;4.614;2023-03-24T13:41:48;18.70;70.30
17495;DHT22;8864;51.970;4.614;2023-03-24T13:44:18;18.70;70.20
17495;DHT22;8864;51.970;4.614;2023-03-24T13:47:02;18.60;70.10
17495;DHT22;8864;51.970;4.614;2023-03-24T13:49:30;18.60;70.10
17495;DHT22;8864;51.970;4.614;2023-03-24T13:52:03;18.70;70.20
17495;DHT22;8864;51.970;4.614;2023-03-24T13:54:33;18.60;70.10
17495;DHT22;8864;51.970;4.614;2023-03-24T13:57:04;18.60;70.10
17495;DHT22;8864;51.970;4.614;2023-03-24T13:59:37;18.60;70.10
17495;DHT22;8864;51.970;4.614;2023-03-24T14:02:19;18.70;70.10
17495;DHT22;8864;51.970;4.614;2023-03-24T14:04:48;18.70;70.00
17495;DHT22;8864;51.970;4.614;2023-03-24T14:07:31;18.70;69.90
17495;DHT22;8864;51.970;4.614;2023-03-24T14:10:00;18.70;70.00
17495;DHT22;8864;51.970;4.614;2023-03-24T14:12:30;18.70;70.00
17495;DHT22;8864;51.970;4.614;2023-03-24T14:15:19;18.70;70.00
17495;DHT22;8864;51.970;4.614;2023-03-24T14:17:48;18.70;70.10
17495;DHT22;8864;51.970;4.614;2023-03-24T14:20:28;18.70;70.00
17495;DHT22;8864;51.970;4.614;2023-03-24T14:22:59;18.70;70.00
17495;DHT22;8864;51.970;4.614;2023-03-24T14:25:29;18.70;69.90
17495;DHT22;8864;51.970;4.614;2023-03-24T14:31:00;18.80;69.90
17495;DHT22;8864;51.970;4.614;2023-03-24T14:33:28;18.80;69.80
17495;DHT22;8864;51.970;4.614;2023-03-24T14:35:59;18.80;69.60
17495;DHT22;8864;51.970;4.614;2023-03-24T14:38:34;18.90;69.60
17495;DHT22;8864;51.970;4.614;2023-03-24T14:41:07;18.90;69.80
17495;DHT22;8864;51.970;4.614;2023-03-24T14:43:55;18.90;69.60
17495;DHT22;8864;51.970;4.614;2023-03-24T14:46:42;19.00;69.60
17495;DHT22;8864;51.970;4.614;2023-03-24T14:49:22;19.00;69.60
17495;DHT22;8864;51.970;4.614;2023-03-24T14:52:03;19.00;69.50
17495;DHT22;8864;51.970;4.614;2023-03-24T14:54:38;19.00;68.20
17495;DHT22;8864;51.970;4.614;2023-03-24T14:57:13;19.10;67.60
17495;DHT22;8864;51.970;4.614;2023-03-24T14:59:46;19.10;66.70
17495;DHT22;8864;51.970;4.614;2023-03-24T15:02:24;19.20;66.20
17495;DHT22;8864;51.970;4.614;2023-03-24T15:05:14;19.10;65.60
17495;DHT22;8864;51.970;4.614;2023-03-24T15:07:41;19.20;65.20
17495;DHT22;8864;51.970;4.614;2023-03-24T15:10:14;19.20;64.80
17495;DHT22;8864;51.970;4.614;2023-03-24T15:12:45;19.20;64.60
17495;DHT22;8864;51.970;4.614;2023-03-24T15:15:14;19.30;64.10
17495;DHT22;8864;51.970;4.614;2023-03-24T15:17:42;19.30;63.80
17495;DHT22;8864;51.970;4.614;2023-03-24T15:20:20;19.30;63.50
17495;DHT22;8864;51.970;4.614;2023-03-24T15:22:48;19.40;63.10
17495;DHT22;8864;51.970;4.614;2023-03-24T15:25:17;19.40;62.70
17495;DHT22;8864;51.970;4.614;2023-03-24T15:27:48;19.40;62.40
17495;DHT22;8864;51.970;4.614;2023-03-24T15:30:17;19.40;62.00
17495;DHT22;8864;51.970;4.614;2023-03-24T15:32:44;19.50;61.90
17495;DHT22;8864;51.970;4.614;2023-03-24T15:35:15;19.40;61.80
17495;DHT22;8864;51.970;4.614;2023-03-24T15:37:43;19.40;61.70
17495;DHT22;8864;51.970;4.614;2023-03-24T15:40:34;19.50;61.70
17495;DHT22;8864;51.970;4.614;2023-03-24T15:43:03;19.50;61.50
17495;DHT22;8864;51.970;4.614;2023-03-24T15:45:32;19.50;61.50
17495;DHT22;8864;51.970;4.614;2023-03-24T15:48:05;19.40;61.50
17495;DHT22;8864;51.970;4.614;2023-03-24T15:50:35;19.40;61.60
17495;DHT22;8864;51.970;4.614;2023-03-24T15:53:05;19.30;61.60
17495;DHT22;8864;51.970;4.614;2023-03-24T15:55:35;19.30;61.80
17495;DHT22;8864;51.970;4.614;2023-03-24T15:58:19;19.20;61.60
17495;DHT22;8864;51.970;4.614;2023-03-24T16:00:50;19.20;61.60
17495;DHT22;8864;51.970;4.614;2023-03-24T16:03:18;19.20;61.70
17495;DHT22;8864;51.970;4.614;2023-03-24T16:05:51;19.20;61.80
17495;DHT22;8864;51.970;4.614;2023-03-24T16:08:27;19.10;61.70
17495;DHT22;8864;51.970;4.614;2023-03-24T16:10:58;19.10;61.80
17495;DHT22;8864;51.970;4.614;2023-03-24T16:13:25;19.10;61.80
17495;DHT22;8864;51.970;4.614;2023-03-24T16:15:55;19.00;61.90
17495;DHT22;8864;51.970;4.614;2023-03-24T16:18:26;19.00;62.00
17495;DHT22;8864;51.970;4.614;2023-03-24T16:20:56;18.90;61.90
17495;DHT22;8864;51.970;4.614;2023-03-24T16:23:23;18.90;62.00
17495;DHT22;8864;51.970;4.614;2023-03-24T16:25:50;19.00;62.10